Time;durP1;ratioP1;P1;durP2;ratioP2;P2;SDS_P1;SDS_P2;PMS_P1;PMS_P2;Temp;Humidity;BMP_temperature;BMP_pressure;BME280_temperature;BME280_humidity;BME280_pressure;Samples;Min_cycle;Max_cycle;Signal;HPM_P1;HPM_P2
2022/01/05 00:00:08;;;;;;;13.18;2.55;;;2.00;99.90;;;;;;4961524;28;20015;-91
2022/01/05 00:02:35;;;;;;;16.52;2.70;;;2.00;99.90;;;;;;4960072;28;20053;-91
2022/01/05 00:05:02;;;;;;;15.07;2.35;;;2.00;99.90;;;;;;4959289;28;20027;-91
2022/01/05 00:07:28;;;;;;;19.75;2.70;;;2.00;99.90;;;;;;4967079;28;20074;-90
2022/01/05 00:09:53;;;;;;;22.52;3.10;;;2.00;99.90;;;;;;4959315;28;20117;-92
2022/01/05 00:12:19;;;;;;;15.15;2.40;;;2.00;99.90;;;;;;4959319;28;20026;-90
2022/01/05 00:14:46;;;;;;;15.52;2.30;;;1.90;99.90;;;;;;4959194;28;20023;-90
2022/01/05 00:17:12;;;;;;;10.43;1.80;;;1.90;99.90;;;;;;4960079;28;20038;-91
2022/01/05 00:19:39;;;;;;;17.23;2.10;;;1.90;99.90;;;;;;4961251;28;20034;-88
2022/01/05 00:22:06;;;;;;;9.32;1.70;;;2.00;99.90;;;;;;4958825;28;20054;-89
2022/01/05 00:24:32;;;;;;;15.43;2.20;;;2.00;99.90;;;;;;4959298;28;20505;-93
2022/01/05 00:26:57;;;;;;;13.20;1.83;;;2.00;99.90;;;;;;4959394;28;20023;-92
2022/01/05 00:29:23;;;;;;;15.85;2.13;;;2.10;99.90;;;;;;4960927;28;20019;-91
2022/01/05 00:31:49;;;;;;;17.63;1.55;;;2.00;99.90;;;;;;4958888;28;20118;-92
2022/01/05 00:34:15;;;;;;;13.82;1.67;;;2.10;99.90;;;;;;4958761;28;20101;-92
2022/01/05 00:36:43;;;;;;;13.13;2.70;;;2.20;99.90;;;;;;4958594;28;20039;-92
2022/01/05 00:39:09;;;;;;;19.38;2.15;;;2.20;99.90;;;;;;4963221;28;20019;-91
2022/01/05 00:41:38;;;;;;;6.57;1.33;;;2.20;99.90;;;;;;4961342;28;20061;-91
2022/01/05 00:44:04;;;;;;;12.77;2.08;;;2.30;99.90;;;;;;4961007;28;20483;-91
2022/01/05 00:46:32;;;;;;;23.13;2.58;;;2.30;99.90;;;;;;4978435;28;20029;-92
2022/01/05 00:48:57;;;;;;;15.30;2.20;;;2.40;99.90;;;;;;4959201;28;20081;-93
2022/01/05 00:51:23;;;;;;;14.68;1.90;;;2.30;99.90;;;;;;4958497;28;20134;-92
2022/01/05 00:53:49;;;;;;;21.38;1.88;;;2.40;99.90;;;;;;4958728;28;20486;-91
2022/01/05 00:56:15;;;;;;;13.07;1.90;;;2.40;99.90;;;;;;4958250;28;20062;-93
2022/01/05 00:58:41;;;;;;;9.27;1.65;;;2.40;99.90;;;;;;4958029;28;20027;-92
2022/01/05 01:01:06;;;;;;;20.95;2.67;;;2.40;99.90;;;;;;4959708;28;20395;-91
2022/01/05 01:03:36;;;;;;;19.98;1.70;;;2.40;99.90;;;;;;4958198;28;20031;-92
2022/01/05 01:06:02;;;;;;;15.15;2.03;;;2.40;99.90;;;;;;4972028;28;20555;-91
2022/01/05 01:08:28;;;;;;;8.77;1.30;;;2.40;99.90;;;;;;4959318;28;20073;-91
2022/01/05 01:10:53;;;;;;;16.02;2.55;;;2.50;99.90;;;;;;4958029;28;20436;-91
2022/01/05 01:13:20;;;;;;;12.27;1.48;;;2.50;99.90;;;;;;4957846;28;20074;-91
2022/01/05 01:15:47;;;;;;;11.60;1.90;;;2.50;99.90;;;;;;4962513;28;20078;-92
2022/01/05 01:18:14;;;;;;;16.02;2.25;;;2.50;99.90;;;;;;4958406;28;20498;-91
2022/01/05 01:20:40;;;;;;;24.13;2.70;;;2.60;99.90;;;;;;4957597;28;20030;-93
2022/01/05 01:23:06;;;;;;;13.77;1.60;;;2.60;99.90;;;;;;4960006;28;20054;-92
2022/01/05 01:25:33;;;;;;;21.55;3.95;;;2.60;99.90;;;;;;4960477;28;20022;-91
2022/01/05 01:27:58;;;;;;;10.35;1.67;;;2.60;99.90;;;;;;4957862;28;20097;-92
2022/01/05 01:30:24;;;;;;;7.55;1.30;;;2.70;99.90;;;;;;4957437;28;20031;-92
2022/01/05 01:32:50;;;;;;;23.45;3.28;;;2.70;99.90;;;;;;4957494;28;20030;-92
2022/01/05 01:35:16;;;;;;;18.05;3.10;;;2.70;99.90;;;;;;4957914;28;20030;-93
2022/01/05 01:37:41;;;;;;;16.05;1.88;;;2.60;99.90;;;;;;4955021;28;20492;-91
2022/01/05 01:40:08;;;;;;;20.00;2.10;;;2.70;99.90;;;;;;4957404;28;20043;-93
2022/01/05 01:42:35;;;;;;;19.90;2.42;;;2.60;99.90;;;;;;4957297;28;20025;-94
2022/01/05 01:45:02;;;;;;;20.75;2.15;;;2.60;99.90;;;;;;4957393;28;20078;-91
2022/01/05 01:47:28;;;;;;;12.23;2.20;;;2.60;99.90;;;;;;4961758;28;20098;-91
2022/01/05 01:49:53;;;;;;;12.02;2.00;;;2.60;99.90;;;;;;4957580;28;20053;-92
2022/01/05 01:52:20;;;;;;;12.43;1.90;;;2.70;99.90;;;;;;4965523;28;20072;-92
2022/01/05 01:54:46;;;;;;;15.73;1.77;;;2.70;99.90;;;;;;4966405;28;20031;-92
2022/01/05 01:57:12;;;;;;;16.02;3.70;;;2.70;99.90;;;;;;4966101;28;20030;-90
2022/01/05 01:59:39;;;;;;;12.82;2.17;;;2.70;99.90;;;;;;4965164;28;20025;-93
2022/01/05 02:02:05;;;;;;;12.50;3.13;;;2.70;99.90;;;;;;4967239;28;20077;-91
2022/01/05 02:04:32;;;;;;;20.23;2.22;;;2.70;99.90;;;;;;4967264;28;20558;-90
2022/01/05 02:06:58;;;;;;;11.90;2.08;;;2.80;99.90;;;;;;4965895;28;20023;-91
2022/01/05 02:09:23;;;;;;;7.90;1.73;;;2.80;99.90;;;;;;4967944;28;20026;-90
2022/01/05 02:11:49;;;;;;;11.35;2.10;;;2.80;99.90;;;;;;4975547;28;20023;-90
2022/01/05 02:14:15;;;;;;;16.38;2.65;;;2.80;99.90;;;;;;4974802;28;20427;-92
2022/01/05 02:16:44;;;;;;;25.25;3.20;;;2.80;99.90;;;;;;4972542;28;20049;-91
2022/01/05 02:19:10;;;;;;;18.98;2.42;;;2.90;99.90;;;;;;4966088;28;20050;-89
2022/01/05 02:21:37;;;;;;;16.50;2.72;;;2.90;99.90;;;;;;4969652;28;20030;-92
2022/01/05 02:24:06;;;;;;;22.52;2.17;;;2.80;99.90;;;;;;4970418;28;20053;-91
2022/01/05 02:26:32;;;;;;;21.05;2.88;;;2.80;99.90;;;;;;4967881;28;20096;-91
2022/01/05 02:28:58;;;;;;;12.27;1.35;;;2.90;99.90;;;;;;4971425;28;20030;-90
2022/01/05 02:31:24;;;;;;;12.45;1.60;;;2.90;99.90;;;;;;4966544;28;20023;-90
2022/01/05 02:33:50;;;;;;;11.80;2.38;;;2.90;99.90;;;;;;4972178;28;20030;-91
2022/01/05 02:36:19;;;;;;;9.10;1.45;;;2.90;99.90;;;;;;4966520;28;20129;-91
2022/01/05 02:38:50;;;;;;;10.68;1.80;;;2.90;99.90;;;;;;4983764;28;20034;-90
2022/01/05 02:41:17;;;;;;;15.68;1.92;;;2.90;99.90;;;;;;4965425;28;20057;-91
2022/01/05 02:43:44;;;;;;;10.80;1.77;;;2.90;99.90;;;;;;4968580;28;20019;-90
2022/01/05 02:46:16;;;;;;;23.70;2.33;;;2.90;99.90;;;;;;4971656;28;20054;-93
2022/01/05 02:48:42;;;;;;;10.00;1.63;;;2.90;99.90;;;;;;4971532;28;20041;-92
2022/01/05 02:51:09;;;;;;;7.20;1.98;;;2.90;99.90;;;;;;4965167;28;20138;-91
2022/01/05 02:53:35;;;;;;;16.00;2.22;;;2.90;99.90;;;;;;4963511;28;20073;-92
2022/01/05 02:56:01;;;;;;;9.52;1.70;;;2.90;99.90;;;;;;4961065;28;20034;-91
2022/01/05 02:58:27;;;;;;;13.70;1.63;;;2.90;99.90;;;;;;4961158;28;20465;-92
2022/01/05 03:00:53;;;;;;;15.35;2.13;;;2.90;99.90;;;;;;4961141;28;20022;-92
2022/01/05 03:03:18;;;;;;;23.33;1.90;;;2.90;99.90;;;;;;4974595;28;20126;-91
2022/01/05 03:05:44;;;;;;;14.57;2.35;;;2.90;99.90;;;;;;4962284;28;20048;-92
2022/01/05 03:08:10;;;;;;;12.43;1.55;;;2.90;99.90;;;;;;4960185;28;20019;-92
2022/01/05 03:10:36;;;;;;;15.60;2.03;;;2.90;99.90;;;;;;4960211;28;20050;-92
2022/01/05 03:13:02;;;;;;;11.15;1.40;;;2.80;99.90;;;;;;4959864;28;20112;-92
2022/01/05 03:15:28;;;;;;;12.85;1.83;;;2.80;99.90;;;;;;4959646;28;20015;-91
2022/01/05 03:17:54;;;;;;;8.30;1.95;;;2.80;99.90;;;;;;4960001;28;20035;-93
2022/01/05 03:20:20;;;;;;;9.95;1.60;;;2.80;99.90;;;;;;4959445;28;20034;-93
2022/01/05 03:22:48;;;;;;;12.88;1.95;;;2.80;99.90;;;;;;4958730;28;20027;-91
2022/01/05 03:25:18;;;;;;;11.05;1.65;;;2.70;99.90;;;;;;4957751;28;20019;-91
2022/01/05 03:27:45;;;;;;;16.40;1.80;;;2.70;99.90;;;;;;4956447;28;20015;-93
2022/01/05 03:30:16;;;;;;;12.20;1.92;;;2.60;99.90;;;;;;4957650;28;20105;-92
2022/01/05 03:33:02;;;;;;;12.80;1.42;;;2.60;99.90;;;;;;4942234;29;20082;-92
2022/01/05 03:35:34;;;;;;;15.95;1.95;;;2.60;99.90;;;;;;4955152;29;20118;-92
2022/01/05 03:38:00;;;;;;;12.70;2.30;;;2.60;99.90;;;;;;4955861;28;20027;-92
2022/01/05 03:40:27;;;;;;;23.98;3.03;;;2.50;99.90;;;;;;4942813;28;20026;-93
2022/01/05 03:42:53;;;;;;;11.80;1.50;;;2.60;99.90;;;;;;4957530;28;20030;-92
2022/01/05 03:45:19;;;;;;;23.83;1.92;;;2.50;99.90;;;;;;4959088;28;20074;-92
2022/01/05 03:47:45;;;;;;;13.15;2.03;;;2.50;99.90;;;;;;4959356;28;20019;-92
2022/01/05 03:50:11;;;;;;;9.27;1.77;;;2.50;99.90;;;;;;4960032;28;20054;-92
2022/01/05 03:52:36;;;;;;;15.55;2.08;;;2.50;99.90;;;;;;4961294;28;20035;-93
2022/01/05 03:55:05;;;;;;;16.15;2.25;;;2.50;99.90;;;;;;4959347;28;20031;-92
2022/01/05 03:57:32;;;;;;;14.73;1.90;;;2.50;99.90;;;;;;4960123;28;20085;-91
2022/01/05 03:59:58;;;;;;;16.83;2.67;;;2.50;99.90;;;;;;4960952;28;20030;-91
2022/01/05 04:02:24;;;;;;;13.68;2.42;;;2.60;99.90;;;;;;4961025;28;20023;-92
2022/01/05 04:04:50;;;;;;;14.02;1.70;;;2.60;99.90;;;;;;4964398;28;20472;-91
2022/01/05 04:07:16;;;;;;;13.88;1.85;;;2.60;99.90;;;;;;4976371;28;20053;-93
2022/01/05 04:09:42;;;;;;;10.73;1.95;;;2.60;99.90;;;;;;4979613;28;20061;-92
2022/01/05 04:12:09;;;;;;;8.80;1.35;;;2.60;99.90;;;;;;4979859;28;20222;-93
2022/01/05 04:14:34;;;;;;;16.55;1.95;;;2.60;99.90;;;;;;4970697;28;20023;-91
2022/01/05 04:17:00;;;;;;;4.18;0.65;;;2.70;99.90;;;;;;4962254;28;20045;-91
2022/01/05 04:19:26;;;;;;;9.30;1.50;;;2.70;99.90;;;;;;4962589;28;20086;-93
2022/01/05 04:21:53;;;;;;;14.65;1.83;;;2.60;99.90;;;;;;4966527;28;20029;-92
2022/01/05 04:24:19;;;;;;;18.92;2.63;;;2.70;99.90;;;;;;4961120;28;20077;-92
2022/01/05 04:26:45;;;;;;;13.95;1.42;;;2.70;99.90;;;;;;4960177;28;20432;-93
2022/01/05 04:29:11;;;;;;;18.50;3.97;;;2.70;99.90;;;;;;4960384;28;20031;-93
2022/01/05 04:31:37;;;;;;;12.38;1.60;;;2.60;99.90;;;;;;4960140;28;20065;-92
2022/01/05 04:34:03;;;;;;;15.00;2.10;;;2.60;99.90;;;;;;4959726;28;20030;-90
2022/01/05 04:36:29;;;;;;;19.02;1.92;;;2.60;99.90;;;;;;4962939;28;20224;-91
2022/01/05 04:38:55;;;;;;;27.60;3.95;;;2.60;99.90;;;;;;4966693;28;20031;-92
2022/01/05 04:41:21;;;;;;;11.73;1.63;;;2.70;99.90;;;;;;4959823;28;20383;-91
2022/01/05 04:43:47;;;;;;;10.25;1.23;;;2.60;99.90;;;;;;4960209;28;20029;-89
2022/01/05 04:46:13;;;;;;;13.80;1.40;;;2.60;99.90;;;;;;4959930;28;20029;-92
2022/01/05 04:48:39;;;;;;;13.27;1.70;;;2.60;99.90;;;;;;4960011;28;20538;-94
2022/01/05 04:51:04;;;;;;;16.67;1.98;;;2.60;99.90;;;;;;4958200;28;20053;-90
2022/01/05 04:53:30;;;;;;;11.82;1.55;;;2.60;99.90;;;;;;4964774;28;20037;-92
2022/01/05 04:55:56;;;;;;;8.98;1.67;;;2.60;99.90;;;;;;4959235;28;20062;-91
2022/01/05 04:58:22;;;;;;;13.80;1.60;;;2.60;99.90;;;;;;4962605;28;20126;-92
2022/01/05 05:00:47;;;;;;;9.30;1.33;;;2.60;99.90;;;;;;4959444;28;20022;-91
2022/01/05 05:03:13;;;;;;;21.85;1.83;;;2.60;99.90;;;;;;4960118;28;20596;-92
2022/01/05 05:05:39;;;;;;;14.80;3.90;;;2.70;99.90;;;;;;4960558;28;20030;-93
2022/01/05 05:08:05;;;;;;;15.68;2.15;;;2.60;99.90;;;;;;4967839;28;20034;-93
2022/01/05 05:10:31;;;;;;;11.68;1.52;;;2.70;99.90;;;;;;4968640;28;20523;-92
2022/01/05 05:12:58;;;;;;;13.88;1.77;;;2.70;99.90;;;;;;4966252;28;20030;-92
2022/01/05 05:15:24;;;;;;;13.57;3.08;;;2.80;99.90;;;;;;4964293;28;20018;-92
2022/01/05 05:17:50;;;;;;;10.88;1.50;;;2.70;99.90;;;;;;4962176;28;20031;-91
2022/01/05 05:20:16;;;;;;;11.23;1.88;;;2.70;99.90;;;;;;4960159;28;20059;-91
2022/01/05 05:22:42;;;;;;;15.57;3.13;;;2.70;99.90;;;;;;4962532;28;20022;-91
2022/01/05 05:25:08;;;;;;;15.68;1.88;;;2.70;99.90;;;;;;4957759;28;20412;-90
2022/01/05 05:27:34;;;;;;;9.75;1.58;;;2.70;99.90;;;;;;4961548;28;20035;-92
2022/01/05 05:29:59;;;;;;;15.05;1.88;;;2.80;99.90;;;;;;4958445;28;20476;-91
2022/01/05 05:32:25;;;;;;;14.73;2.25;;;2.80;99.90;;;;;;4958775;28;20033;-92
2022/01/05 05:34:51;;;;;;;13.80;2.08;;;2.80;99.90;;;;;;4958784;28;20050;-91
2022/01/05 05:37:16;;;;;;;6.38;1.23;;;2.70;99.90;;;;;;4955955;28;20042;-91
2022/01/05 05:39:43;;;;;;;9.35;1.83;;;2.70;99.90;;;;;;4966595;28;20045;-91
2022/01/05 05:42:09;;;;;;;11.88;1.33;;;2.70;99.90;;;;;;4958474;28;20073;-90
2022/01/05 05:44:35;;;;;;;16.13;1.65;;;2.70;99.90;;;;;;4958190;28;20023;-92
2022/01/05 05:47:02;;;;;;;12.93;1.73;;;2.70;99.90;;;;;;4957900;28;20018;-91
2022/01/05 05:49:28;;;;;;;12.55;1.70;;;2.60;99.90;;;;;;4958505;28;20502;-92
2022/01/05 05:51:54;;;;;;;13.30;2.90;;;2.60;99.90;;;;;;4957935;28;20134;-92
2022/01/05 05:54:20;;;;;;;11.32;2.10;;;2.60;99.90;;;;;;4958096;28;20114;-92
2022/01/05 05:56:46;;;;;;;11.52;2.83;;;2.60;99.90;;;;;;4958020;28;20041;-90
2022/01/05 05:59:12;;;;;;;19.02;1.65;;;2.60;99.90;;;;;;4974267;28;20121;-90
2022/01/05 06:01:37;;;;;;;12.55;1.70;;;2.60;99.90;;;;;;4958115;28;20142;-91
2022/01/05 06:04:03;;;;;;;12.70;2.10;;;2.50;99.90;;;;;;4971248;28;20407;-91
2022/01/05 06:06:29;;;;;;;23.48;1.73;;;2.60;99.90;;;;;;4958156;28;20030;-92
2022/01/05 06:08:56;;;;;;;21.08;2.50;;;2.60;99.90;;;;;;4958119;28;20472;-91
2022/01/05 06:11:21;;;;;;;11.90;2.28;;;2.60;99.90;;;;;;4965975;28;20045;-92
2022/01/05 06:13:48;;;;;;;7.88;2.05;;;2.50;99.90;;;;;;4965805;28;20492;-90
2022/01/05 06:16:14;;;;;;;15.80;3.25;;;2.60;99.90;;;;;;4959286;28;20030;-92
2022/01/05 06:18:40;;;;;;;10.50;1.90;;;2.50;99.90;;;;;;4966316;28;20023;-91
2022/01/05 06:21:06;;;;;;;11.90;1.92;;;2.50;99.90;;;;;;4961322;28;20468;-92
2022/01/05 06:23:31;;;;;;;10.60;1.50;;;2.60;99.90;;;;;;4961560;28;20085;-92
2022/01/05 06:25:59;;;;;;;8.00;1.20;;;2.60;99.90;;;;;;4961642;28;20050;-92
2022/01/05 06:28:24;;;;;;;11.18;1.38;;;2.50;99.90;;;;;;4961586;28;20042;-92
2022/01/05 06:30:50;;;;;;;18.17;3.20;;;2.50;99.90;;;;;;4961706;28;20023;-91
2022/01/05 06:33:16;;;;;;;18.70;2.50;;;2.50;99.90;;;;;;4961659;28;20086;-91
2022/01/05 06:35:42;;;;;;;16.02;2.13;;;2.50;99.90;;;;;;4961592;28;20045;-92
2022/01/05 06:38:07;;;;;;;18.25;4.00;;;2.50;99.90;;;;;;4960366;28;20050;-92
2022/01/05 06:40:33;;;;;;;14.32;2.33;;;2.60;99.90;;;;;;4963804;28;20519;-92
2022/01/05 06:43:01;;;;;;;23.85;3.00;;;2.50;99.90;;;;;;4961224;28;20051;-91
2022/01/05 06:45:27;;;;;;;16.10;2.17;;;2.60;99.90;;;;;;4961173;28;20499;-91
2022/01/05 06:47:53;;;;;;;13.02;1.85;;;2.50;99.90;;;;;;4960825;28;20023;-92
2022/01/05 06:50:19;;;;;;;18.05;2.20;;;2.60;99.90;;;;;;4961159;28;20454;-90
2022/01/05 06:52:45;;;;;;;14.93;2.17;;;2.60;99.90;;;;;;4960761;28;20047;-91
2022/01/05 06:55:10;;;;;;;10.75;2.38;;;2.60;99.90;;;;;;4961070;28;20023;-91
2022/01/05 06:57:40;;;;;;;11.07;1.80;;;2.50;99.90;;;;;;4961026;28;20038;-91
2022/01/05 07:00:08;;;;;;;16.65;2.00;;;2.50;99.90;;;;;;4951140;28;20027;-91
2022/01/05 07:02:34;;;;;;;14.77;1.98;;;2.50;99.90;;;;;;4961406;28;20034;-90
2022/01/05 07:05:01;;;;;;;5.97;1.02;;;2.50;99.90;;;;;;4961536;28;20476;-92
2022/01/05 07:07:27;;;;;;;8.07;1.60;;;2.50;99.90;;;;;;4962227;28;20117;-91
2022/01/05 07:09:53;;;;;;;10.35;1.35;;;2.50;99.90;;;;;;4969499;28;20022;-90
2022/01/05 07:12:19;;;;;;;21.02;2.20;;;2.50;99.90;;;;;;4968343;28;20034;-90
2022/01/05 07:14:45;;;;;;;11.23;2.53;;;2.50;99.90;;;;;;4962030;28;20472;-90
2022/01/05 07:17:11;;;;;;;8.90;1.73;;;2.50;99.90;;;;;;4960876;28;20041;-92
2022/01/05 07:19:37;;;;;;;11.50;1.75;;;2.50;99.90;;;;;;4978100;28;20496;-91
2022/01/05 07:22:03;;;;;;;15.43;2.75;;;2.50;99.90;;;;;;4959968;28;20026;-91
2022/01/05 07:24:29;;;;;;;18.00;1.70;;;2.40;99.90;;;;;;4963166;28;20019;-92
2022/01/05 07:26:54;;;;;;;11.90;1.77;;;2.40;99.90;;;;;;4960631;28;20023;-90
2022/01/05 07:29:20;;;;;;;16.08;2.03;;;2.40;99.90;;;;;;4963490;28;20399;-90
2022/01/05 07:31:47;;;;;;;13.95;2.45;;;2.40;99.90;;;;;;4960134;28;20033;-91
2022/01/05 07:34:13;;;;;;;12.20;1.83;;;2.40;99.90;;;;;;4958532;28;20015;-94
2022/01/05 07:36:39;;;;;;;11.23;1.60;;;2.30;99.90;;;;;;4968117;28;20059;-93
2022/01/05 07:39:05;;;;;;;6.65;1.40;;;2.30;99.90;;;;;;4958946;28;20083;-90
2022/01/05 07:41:33;;;;;;;11.25;1.70;;;2.30;99.90;;;;;;4962976;28;20023;-91
2022/01/05 07:43:59;;;;;;;15.85;2.20;;;2.30;99.90;;;;;;4960418;28;20035;-91
2022/01/05 07:46:25;;;;;;;15.68;2.45;;;2.30;99.90;;;;;;4959878;28;20030;-92
2022/01/05 07:48:51;;;;;;;21.05;2.80;;;2.30;99.90;;;;;;4960952;28;20182;-93
2022/01/05 07:51:17;;;;;;;11.65;2.10;;;2.30;99.90;;;;;;4958150;28;20050;-93
2022/01/05 07:53:42;;;;;;;9.23;1.55;;;2.30;99.90;;;;;;4961702;28;20027;-90
2022/01/05 07:56:09;;;;;;;8.25;1.52;;;2.20;99.90;;;;;;4959719;28;20031;-92
2022/01/05 07:58:36;;;;;;;16.17;2.40;;;2.20;99.90;;;;;;4959901;28;20039;-91
2022/01/05 08:01:06;;;;;;;14.27;3.13;;;2.20;99.90;;;;;;4959137;28;20027;-92
2022/01/05 08:03:33;;;;;;;6.72;1.45;;;2.20;99.90;;;;;;4968222;28;20058;-93
2022/01/05 08:06:04;;;;;;;13.48;1.90;;;2.20;99.90;;;;;;4967275;28;20480;-90
2022/01/05 08:08:29;;;;;;;;;;;2.20;99.90;;;;;;4969298;28;20026;-92
2022/01/05 08:10:56;;;;;;;7.93;1.08;;;2.20;99.90;;;;;;4970400;28;20375;-89
2022/01/05 08:13:24;;;;;;;9.65;1.42;;;2.20;99.90;;;;;;4976155;28;20070;-88
2022/01/05 08:15:51;;;;;;;18.65;2.17;;;2.20;99.90;;;;;;4970593;28;20030;-91
2022/01/05 08:18:18;;;;;;;21.33;2.03;;;2.20;99.90;;;;;;4959688;28;20050;-91
2022/01/05 08:20:45;;;;;;;10.23;1.33;;;2.20;99.90;;;;;;4959872;28;20066;-91
2022/01/05 08:23:19;;;;;;;12.73;2.00;;;2.20;99.90;;;;;;4958011;28;20035;-92
2022/01/05 08:25:46;;;;;;;9.25;1.65;;;2.20;99.90;;;;;;4966783;28;20361;-92
2022/01/05 08:28:12;;;;;;;11.13;1.10;;;2.20;99.90;;;;;;4958969;28;20034;-91
2022/01/05 08:30:38;;;;;;;9.45;1.58;;;2.20;99.90;;;;;;4960059;28;20031;-91
2022/01/05 08:33:05;;;;;;;14.70;1.52;;;2.20;99.90;;;;;;4959364;28;20044;-90
2022/01/05 08:35:32;;;;;;;6.93;1.90;;;2.20;99.90;;;;;;4960408;28;20503;-91
2022/01/05 08:37:59;;;;;;;13.50;1.58;;;2.20;99.90;;;;;;4960524;28;20073;-91
2022/01/05 08:40:26;;;;;;;9.90;1.08;;;2.20;99.90;;;;;;4969811;28;20027;-92
2022/01/05 08:42:54;;;;;;;8.27;2.05;;;2.20;99.90;;;;;;4960554;28;20034;-91
2022/01/05 08:45:21;;;;;;;13.23;1.70;;;2.20;99.90;;;;;;4964681;28;20066;-91
2022/01/05 08:47:49;;;;;;;10.68;2.00;;;2.20;99.90;;;;;;4960440;28;20022;-91
2022/01/05 08:50:28;;;;;;;11.50;1.45;;;2.20;99.90;;;;;;4961546;28;20049;-92
2022/01/05 08:53:00;;;;;;;9.77;1.50;;;2.30;99.90;;;;;;4960152;28;20065;-90
2022/01/05 08:55:32;;;;;;;11.45;1.40;;;2.30;99.90;;;;;;4954580;28;20122;-91
2022/01/05 08:57:58;;;;;;;9.80;1.55;;;2.30;99.90;;;;;;4954169;28;20030;-91
2022/01/05 09:00:24;;;;;;;10.02;1.65;;;2.30;99.90;;;;;;4961382;28;20019;-90
2022/01/05 09:02:50;;;;;;;14.48;1.63;;;2.30;99.90;;;;;;4965576;28;20035;-89
2022/01/05 09:05:17;;;;;;;13.18;1.15;;;2.40;99.90;;;;;;4964569;28;20071;-90
2022/01/05 09:07:50;;;;;;;16.20;1.60;;;2.40;99.90;;;;;;4954770;28;20042;-91
2022/01/05 09:10:17;;;;;;;10.65;1.85;;;2.40;99.90;;;;;;4952164;28;20576;-90
2022/01/05 09:12:43;;;;;;;15.35;2.20;;;2.40;99.90;;;;;;4958724;28;20383;-92
2022/01/05 09:15:09;;;;;;;12.93;1.73;;;2.50;99.90;;;;;;4959144;28;20027;-91
2022/01/05 09:17:35;;;;;;;6.85;1.13;;;2.50;99.90;;;;;;4963690;28;20055;-92
2022/01/05 09:20:03;;;;;;;12.90;1.58;;;2.50;99.90;;;;;;4952524;28;20034;-91
2022/01/05 09:22:30;;;;;;;10.60;1.52;;;2.60;99.90;;;;;;4950309;28;20033;-90
2022/01/05 09:24:56;;;;;;;34.17;1.73;;;2.60;99.90;;;;;;4949666;28;20396;-89
2022/01/05 09:27:22;;;;;;;8.05;2.50;;;2.60;99.90;;;;;;4949390;28;20098;-91
2022/01/05 09:29:49;;;;;;;6.50;1.20;;;2.70;99.90;;;;;;4965471;28;20019;-91
2022/01/05 09:32:15;;;;;;;6.20;1.33;;;2.80;99.90;;;;;;4948127;28;20078;-90
2022/01/05 09:34:42;;;;;;;10.32;1.65;;;2.90;99.90;;;;;;4948854;28;20442;-91
2022/01/05 09:37:25;;;;;;;12.90;2.13;;;3.00;99.90;;;;;;4954142;28;20042;-91
2022/01/05 09:42:37;;;;;;;14.85;1.80;;;3.20;99.90;;;;;;4973995;28;20098;-93
2022/01/05 09:45:21;;;;;;;12.60;1.23;;;3.40;99.90;;;;;;4958487;28;20495;-93
2022/01/05 09:48:24;;;;;;;9.63;1.60;;;3.50;99.90;;;;;;4963009;28;20026;-94
2022/01/05 09:51:03;;;;;;;11.77;1.50;;;3.70;99.90;;;;;;4963811;28;20026;-93
2022/01/05 09:53:33;;;;;;;10.60;1.70;;;3.80;99.90;;;;;;4976474;28;20130;-92
2022/01/05 09:55:59;;;;;;;6.77;1.77;;;3.90;99.90;;;;;;4966982;28;20015;-93
2022/01/05 09:58:27;;;;;;;7.40;1.67;;;4.00;99.90;;;;;;4967639;28;20031;-93
2022/01/05 10:00:53;;;;;;;12.60;2.05;;;4.20;99.90;;;;;;4969368;28;20070;-93
2022/01/05 10:03:21;;;;;;;10.00;1.80;;;4.40;99.90;;;;;;4947348;28;20027;-93
2022/01/05 10:05:47;;;;;;;11.70;2.22;;;4.50;99.90;;;;;;4953794;28;20027;-91
2022/01/05 10:08:13;;;;;;;10.30;1.25;;;4.80;99.90;;;;;;4947827;28;20027;-89
2022/01/05 10:10:41;;;;;;;6.13;1.35;;;5.00;99.90;;;;;;4947698;28;20027;-90
2022/01/05 10:13:07;;;;;;;8.75;1.80;;;5.10;99.90;;;;;;4950662;28;20046;-87
2022/01/05 10:15:34;;;;;;;8.75;2.70;;;5.40;99.90;;;;;;4960532;28;20116;-89
2022/01/05 10:18:22;;;;;;;9.82;1.80;;;5.60;99.90;;;;;;4957472;28;20035;-90
2022/01/05 10:21:17;;;;;;;8.00;1.30;;;5.90;99.90;;;;;;4955877;28;20375;-90
2022/01/05 10:23:44;;;;;;;13.55;2.35;;;6.20;99.90;;;;;;4945009;28;20535;-90
2022/01/05 10:26:25;;;;;;;12.30;1.48;;;6.40;99.90;;;;;;4957808;28;20019;-91
2022/01/05 10:28:57;;;;;;;9.27;1.70;;;6.70;99.90;;;;;;4959672;28;20031;-89
2022/01/05 10:31:28;;;;;;;11.85;1.85;;;6.90;99.90;;;;;;4957969;28;20030;-90
2022/01/05 10:33:54;;;;;;;8.30;1.88;;;6.90;99.90;;;;;;4970358;28;20019;-90
2022/01/05 10:36:21;;;;;;;9.82;1.60;;;7.00;99.90;;;;;;4957530;28;20047;-89
2022/01/05 10:38:58;;;;;;;6.32;1.67;;;7.30;99.90;;;;;;4957874;28;20042;-89
2022/01/05 10:41:28;;;;;;;10.70;2.00;;;7.50;99.90;;;;;;4954618;28;20468;-89
2022/01/05 10:44:09;;;;;;;5.93;1.67;;;7.70;99.90;;;;;;4964362;28;20094;-93
2022/01/05 10:46:38;;;;;;;11.65;1.85;;;7.90;99.90;;;;;;4963190;28;20023;-93
2022/01/05 10:49:05;;;;;;;10.75;1.80;;;8.20;99.90;;;;;;4959836;28;20018;-95
2022/01/05 10:51:32;;;;;;;8.52;2.20;;;8.40;98.90;;;;;;4972015;28;20074;-89
2022/01/05 10:54:17;;;;;;;9.05;1.90;;;8.50;97.40;;;;;;4951795;28;20023;-89
2022/01/05 10:56:44;;;;;;;10.30;2.05;;;8.70;96.70;;;;;;4958592;28;20027;-90
2022/01/05 10:59:11;;;;;;;11.50;1.90;;;8.80;96.00;;;;;;4957687;28;20050;-90
2022/01/05 11:01:39;;;;;;;10.70;1.73;;;8.90;95.00;;;;;;4957764;28;20073;-91
2022/01/05 11:04:34;;;;;;;9.60;2.15;;;9.10;94.40;;;;;;4958396;28;20057;-90
2022/01/05 11:07:04;;;;;;;7.40;1.60;;;9.40;93.60;;;;;;4953432;28;20058;-89
2022/01/05 11:09:31;;;;;;;6.07;1.88;;;9.50;93.00;;;;;;4973657;28;20086;-89
2022/01/05 11:11:58;;;;;;;8.68;1.33;;;9.70;92.00;;;;;;4968616;28;20027;-89
2022/01/05 11:14:32;;;;;;;10.40;1.98;;;9.70;91.20;;;;;;4966924;28;20023;-90
2022/01/05 11:17:00;;;;;;;7.60;1.45;;;9.80;90.70;;;;;;4964120;28;20041;-90
2022/01/05 11:19:29;;;;;;;11.10;1.50;;;9.90;90.20;;;;;;4962523;28;20034;-89
2022/01/05 11:22:09;;;;;;;7.95;1.60;;;9.90;89.20;;;;;;4961836;28;20100;-89
2022/01/05 11:24:43;;;;;;;6.00;1.73;;;10.00;88.30;;;;;;4959796;28;20019;-90
2022/01/05 11:27:16;;;;;;;7.50;1.25;;;10.10;87.70;;;;;;4957880;28;20041;-90
2022/01/05 11:29:43;;;;;;;7.40;1.60;;;10.20;86.90;;;;;;4964162;28;20062;-90
2022/01/05 11:32:12;;;;;;;7.35;1.50;;;10.40;85.90;;;;;;4955579;28;20118;-90
2022/01/05 11:34:38;;;;;;;11.00;2.10;;;10.40;84.60;;;;;;4940849;29;20103;-91
2022/01/05 11:37:07;;;;;;;5.78;1.42;;;10.40;83.40;;;;;;4948193;28;20127;-90
2022/01/05 11:39:34;;;;;;;5.93;1.45;;;10.40;82.60;;;;;;4952641;28;20022;-90
2022/01/05 11:42:07;;;;;;;8.98;1.70;;;10.50;81.90;;;;;;4958606;28;20035;-90
2022/01/05 11:44:54;;;;;;;7.78;1.70;;;10.50;81.00;;;;;;4962764;28;20502;-91
2022/01/05 11:47:31;;;;;;;5.50;1.20;;;10.60;80.60;;;;;;4960620;28;20027;-90
2022/01/05 11:50:19;;;;;;;6.13;1.98;;;10.80;80.40;;;;;;4958812;28;20027;-90
2022/01/05 11:53:01;;;;;;;3.58;1.15;;;11.10;79.70;;;;;;4959928;28;20043;-90
2022/01/05 11:55:29;;;;;;;4.93;1.40;;;11.40;78.40;;;;;;4976974;28;20117;-89
2022/01/05 11:58:15;;;;;;;5.75;1.88;;;11.50;77.40;;;;;;4959670;28;20066;-91
2022/01/05 12:00:46;;;;;;;5.00;1.50;;;11.70;76.60;;;;;;4960976;28;20054;-94
2022/01/05 12:03:12;;;;;;;10.30;2.03;;;11.80;76.40;;;;;;4961219;28;20058;-94
2022/01/05 12:06:03;;;;;;;9.48;2.60;;;11.90;75.80;;;;;;4960173;28;20483;-93
2022/01/05 12:08:46;;;;;;;7.18;1.65;;;11.90;74.80;;;;;;4961504;28;20062;-95
2022/01/05 12:11:42;;;;;;;10.20;2.63;;;11.90;74.50;;;;;;4960279;28;20035;-93
2022/01/05 12:14:28;;;;;;;8.35;1.60;;;12.00;73.70;;;;;;4912352;28;20040;-95
2022/01/05 12:17:02;;;;;;;6.78;1.52;;;12.20;73.10;;;;;;4971452;28;20109;-95
2022/01/05 12:19:55;;;;;;;6.45;1.40;;;12.30;72.20;;;;;;4973845;28;20042;-95
2022/01/05 12:22:29;;;;;;;5.55;1.50;;;12.30;71.50;;;;;;4974080;28;20022;-94
2022/01/05 12:25:03;;;;;;;4.45;1.33;;;12.50;71.20;;;;;;4992639;28;20146;-95
2022/01/05 12:27:34;;;;;;;6.03;1.40;;;12.60;70.50;;;;;;4976090;28;20027;-93
2022/01/05 12:30:20;;;;;;;9.35;3.63;;;12.50;69.90;;;;;;4968644;28;20041;-94
2022/01/05 12:32:58;;;;;;;4.35;1.63;;;12.20;69.90;;;;;;4972137;28;20106;-95
2022/01/05 12:35:27;;;;;;;4.88;1.13;;;11.90;70.40;;;;;;4955023;28;20073;-94
2022/01/05 12:38:06;;;;;;;8.23;1.30;;;11.70;70.80;;;;;;4970606;28;20030;-94
2022/01/05 12:40:46;;;;;;;5.63;1.10;;;11.40;71.00;;;;;;4973668;28;20026;-95
2022/01/05 12:43:14;;;;;;;4.43;1.08;;;11.20;71.20;;;;;;4971981;28;20026;-94
2022/01/05 12:45:59;;;;;;;4.75;1.20;;;10.90;71.70;;;;;;4970908;28;20026;-94
2022/01/05 12:48:39;;;;;;;7.25;1.27;;;10.50;72.10;;;;;;4970975;28;20034;-93
2022/01/05 12:54:02;;;;;;;4.93;1.27;;;10.50;72.70;;;;;;4987781;28;20297;-93
2022/01/05 12:56:33;;;;;;;5.63;1.92;;;10.60;72.50;;;;;;4966069;28;20054;-94
2022/01/05 12:59:00;;;;;;;7.13;1.52;;;10.60;71.80;;;;;;4961187;28;20051;-94